Time,TemperatureF,DewpointF,PressureIn,WindDirection,WindDirectionDegrees,WindSpeedMPH,WindSpeedGustMPH,Humidity,HourlyPrecipIn,Conditions,Clouds,dailyrainin,SolarRadiationWatts/m^2,SoftwareType,DateUTC
2013-03-20 00:03:00,55.7,51.3,30.10,WSW,254,0.0,0.0,85,0.00,CLR,,0.00,0.0,WeatherDisplay:10.37,2013-03-20 07:03:00,
2013-03-20 00:08:00,55.6,51.2,30.10,WSW,254,2.0,2.0,85,0.00,CLR,,0.00,0.0,WeatherDisplay:10.37,2013-03-20 07:08:00,
2013-03-20 00:13:00,55.5,51.1,30.10,West,259,3.0,3.0,85,0.00,CLR,,0.00,0.0,WeatherDisplay:10.37,2013-03-20 07:13:00,
2013-03-20 00:18:00,55.4,51.3,30.09,West,268,4.0,4.0,86,0.00,CLR,,0.00,0.0,WeatherDisplay:10.37,2013-03-20 07:18:00,
2013-03-20 00:23:00,55.3,51.2,30.09,West,270,2.3,2.3,86,0.00,CLR,,0.00,0.0,WeatherDisplay:10.37,2013-03-20 07:23:00,
2013-03-20 00:28:00,55.3,51.2,30.10,West,270,1.1,1.1,86,0.00,CLR,,0.00,0.0,WeatherDisplay:10.37,2013-03-20 07:28:00,
2013-03-20 00:33:00,55.3,51.2,30.10,West,270,1.1,0.0,86,0.00,CLR,,0.00,0.0,WeatherDisplay:10.37,2013-03-20 07:33:00,
2013-03-20 00:38:00,55.2,51.1,30.09,West,270,0.0,0.0,86,0.00,CLR,,0.00,0.0,WeatherDisplay:10.37,2013-03-20 07:38:00,
2013-03-20 00:43:00,55.1,51.3,30.09,West,270,0.0,0.0,87,0.00,CLR,,0.00,0.0,WeatherDisplay:10.37,2013-03-20 07:43:00,
2013-03-20 00:48:00,55.2,51.4,30.09,West,270,1.1,0.0,87,0.00,CLR,,0.00,0.0,WeatherDisplay:10.37,2013-03-20 07:48:00,
2013-03-20 00:53:00,55.2,51.4,30.09,West,270,0.0,0.0,87,0.00,CLR,,0.00,0.0,WeatherDisplay:10.37,2013-03-20 07:53:00,
2013-03-20 00:58:00,55.3,51.5,30.09,West,270,0.0,0.0,87,0.00,CLR,,0.00,0.0,WeatherDisplay:10.37,2013-03-20 07:58:00,
2013-03-20 01:03:00,55.3,51.5,30.09,West,270,0.0,0.0,87,0.00,CLR,,0.00,0.0,WeatherDisplay:10.37,2013-03-20 08:03:00,
2013-03-20 01:08:00,55.3,51.5,30.09,West,270,1.1,0.0,87,0.00,CLR,,0.00,0.0,WeatherDisplay:10.37,2013-03-20 08:08:00,
2013-03-20 01:13:00,55.3,51.5,30.09,West,270,1.0,1.0,87,0.00,CLR,,0.00,0.0,WeatherDisplay:10.37,2013-03-20 08:13:00,
2013-03-20 01:18:00,55.2,51.4,30.08,West,270,1.1,1.1,87,0.00,CLR,,0.00,0.0,WeatherDisplay:10.37,2013-03-20 08:18:00,
2013-03-20 01:23:00,55.3,51.5,30.08,SW,236,3.5,3.5,87,0.00,CLR,,0.00,0.0,WeatherDisplay:10.37,2013-03-20 08:23:00,
2013-03-20 01:28:00,55.4,51.6,30.07,SW,236,2.0,2.0,87,0.00,CLR,,0.00,0.0,WeatherDisplay:10.37,2013-03-20 08:28:00,
2013-03-20 01:33:00,55.4,51.6,30.07,SW,230,2.3,2.3,87,0.00,CLR,,0.00,0.0,WeatherDisplay:10.37,2013-03-20 08:33:00,
2013-03-20 01:38:00,55.5,51.7,30.06,SW,230,2.3,2.3,87,0.00,CLR,,0.00,0.0,WeatherDisplay:10.37,2013-03-20 08:38:00,
2013-03-20 01:43:00,55.5,51.7,30.05,ESE,113,3.5,3.5,87,0.00,CLR,,0.00,0.0,WeatherDisplay:10.37,2013-03-20 08:43:00,
2013-03-20 01:48:00,55.5,51.7,30.06,SE,127,2.3,2.3,87,0.00,CLR,,0.00,0.0,WeatherDisplay:10.37,2013-03-20 08:48:00,
2013-03-20 01:53:00,55.5,51.7,30.07,SE,127,0.0,0.0,87,0.00,CLR,,0.00,0.0,WeatherDisplay:10.37,2013-03-20 08:53:00,
2013-03-20 01:58:00,55.5,51.7,30.07,SE,127,0.0,0.0,87,0.00,CLR,,0.00,0.0,WeatherDisplay:10.37,2013-03-20 08:58:00,
2013-03-20 02:03:00,55.5,51.7,30.08,SE,127,2.3,0.0,87,0.00,CLR,,0.00,0.0,WeatherDisplay:10.37,2013-03-20 09:03:00,
2013-03-20 02:08:00,55.5,51.7,30.07,SE,127,0.0,0.0,87,0.00,CLR,,0.00,0.0,WeatherDisplay:10.37,2013-03-20 09:08:00,
2013-03-20 02:13:00,55.4,51.6,30.07,SE,127,0.0,0.0,87,0.00,CLR,,0.00,0.0,WeatherDisplay:10.37,2013-03-20 09:13:00,
2013-03-20 02:18:00,55.4,51.6,30.07,SE,127,0.0,0.0,87,0.00,CLR,,0.00,0.0,WeatherDisplay:10.37,2013-03-20 09:18:00,
2013-03-20 02:23:00,55.4,51.6,30.07,SE,127,0.0,0.0,87,0.00,CLR,,0.00,0.0,WeatherDisplay:10.37,2013-03-20 09:23:00,
2013-03-20 02:28:00,55.4,51.6,30.07,SE,127,1.1,0.0,87,0.00,CLR,,0.00,0.0,WeatherDisplay:10.37,2013-03-20 09:28:00,
2013-03-20 02:33:00,55.4,51.6,30.07,SE,133,3.5,3.5,87,0.00,CLR,,0.00,0.0,WeatherDisplay:10.37,2013-03-20 09:33:00,
2013-03-20 02:38:00,55.4,51.6,30.06,SE,133,1.1,1.1,87,0.00,CLR,,0.00,0.0,WeatherDisplay:10.37,2013-03-20 09:38:00,
2013-03-20 02:43:00,55.1,51.3,30.06,SE,130,2.3,0.0,87,0.00,CLR,,0.00,0.0,WeatherDisplay:10.37,2013-03-20 09:43:00,
2013-03-20 02:48:00,54.9,51.1,30.07,SE,130,0.0,0.0,87,0.00,CLR,,0.00,0.0,WeatherDisplay:10.37,2013-03-20 09:48:00,
2013-03-20 02:53:00,54.8,51.0,30.07,SE,130,0.0,0.0,87,0.00,CLR,,0.00,0.0,WeatherDisplay:10.37,2013-03-20 09:53:00,
2013-03-20 02:58:00,54.7,51.2,30.06,SE,130,1.1,1.1,88,0.00,CLR,,0.00,0.0,WeatherDisplay:10.37,2013-03-20 09:58:00,
2013-03-20 03:03:00,54.4,50.9,30.06,SE,130,1.1,0.0,88,0.00,CLR,,0.00,0.0,WeatherDisplay:10.37,2013-03-20 10:03:00,
2013-03-20 03:08:00,54.1,50.6,30.06,SE,130,0.0,0.0,88,0.00,CLR,,0.00,0.0,WeatherDisplay:10.37,2013-03-20 10:08:00,
2013-03-20 03:13:00,54.0,50.5,30.06,SE,130,0.0,0.0,88,0.00,CLR,,0.00,0.0,WeatherDisplay:10.37,2013-03-20 10:13:00,
2013-03-20 03:18:00,53.9,50.7,30.06,SE,130,0.0,0.0,89,0.00,CLR,,0.00,0.0,WeatherDisplay:10.37,2013-03-20 10:18:00,
2013-03-20 03:23:00,53.8,50.6,30.06,SE,130,0.0,0.0,89,0.00,CLR,,0.00,0.0,WeatherDisplay:10.37,2013-03-20 10:23:00,
2013-03-20 03:28:00,53.6,50.4,30.06,SE,130,0.0,0.0,89,0.00,CLR,,0.00,0.0,WeatherDisplay:10.37,2013-03-20 10:28:00,
2013-03-20 03:33:00,53.5,50.3,30.06,SE,130,0.0,0.0,89,0.00,CLR,,0.00,0.0,WeatherDisplay:10.37,2013-03-20 10:33:00,
2013-03-20 03:38:00,53.5,50.3,30.06,SE,130,0.0,0.0,89,0.00,CLR,,0.00,0.0,WeatherDisplay:10.37,2013-03-20 10:38:00,
2013-03-20 03:43:00,53.4,50.5,30.06,SE,130,0.0,0.0,90,0.00,CLR,,0.00,0.0,WeatherDisplay:10.37,2013-03-20 10:43:00,
2013-03-20 03:48:00,53.4,50.5,30.06,SE,130,0.0,0.0,90,0.00,CLR,,0.00,0.0,WeatherDisplay:10.37,2013-03-20 10:48:00,
2013-03-20 03:53:00,53.5,50.6,30.06,SE,130,0.0,0.0,90,0.00,CLR,,0.00,0.0,WeatherDisplay:10.37,2013-03-20 10:53:00,
2013-03-20 03:58:00,53.6,50.7,30.06,SE,130,0.0,0.0,90,0.00,CLR,,0.00,0.0,WeatherDisplay:10.37,2013-03-20 10:58:00,
2013-03-20 04:03:00,53.6,50.7,30.06,SE,130,0.0,0.0,90,0.00,CLR,,0.00,0.0,WeatherDisplay:10.37,2013-03-20 11:03:00,
2013-03-20 04:08:00,53.6,50.7,30.06,SE,130,0.0,0.0,90,0.00,CLR,,0.00,0.0,WeatherDisplay:10.37,2013-03-20 11:08:00,
2013-03-20 04:13:00,53.5,50.3,30.06,SE,130,0.0,0.0,89,0.00,CLR,,0.00,0.0,WeatherDisplay:10.37,2013-03-20 11:13:00,
2013-03-20 04:18:00,53.3,50.1,30.06,SE,130,0.0,0.0,89,0.00,CLR,,0.00,0.0,WeatherDisplay:10.37,2013-03-20 11:18:00,
2013-03-20 04:23:00,53.2,50.0,30.05,SE,130,0.0,0.0,89,0.00,CLR,,0.00,0.0,WeatherDisplay:10.37,2013-03-20 11:23:00,
2013-03-20 04:28:00,53.0,50.1,30.05,SE,130,0.0,0.0,90,0.00,CLR,,0.00,0.0,WeatherDisplay:10.37,2013-03-20 11:28:00,
2013-03-20 04:33:00,52.9,50.0,30.05,SE,130,0.0,0.0,90,0.00,CLR,,0.00,0.0,WeatherDisplay:10.37,2013-03-20 11:33:00,
2013-03-20 04:38:00,52.8,49.9,30.05,SE,130,0.0,0.0,90,0.00,CLR,,0.00,0.0,WeatherDisplay:10.37,2013-03-20 11:38:00,
2013-03-20 04:43:00,52.6,49.8,30.05,SE,130,1.1,1.1,90,0.00,CLR,,0.00,0.0,WeatherDisplay:10.37,2013-03-20 11:43:00,
2013-03-20 04:48:00,52.6,49.8,30.05,SE,130,0.0,0.0,90,0.00,CLR,,0.00,0.0,WeatherDisplay:10.37,2013-03-20 11:48:00,
2013-03-20 04:53:00,52.6,49.8,30.05,SE,130,1.1,0.0,90,0.00,CLR,,0.00,0.0,WeatherDisplay:10.37,2013-03-20 11:53:00,
2013-03-20 04:58:00,52.5,49.7,30.05,SE,130,0.0,0.0,90,0.00,CLR,,0.00,0.0,WeatherDisplay:10.37,2013-03-20 11:58:00,
2013-03-20 05:03:00,52.3,49.5,30.05,SE,130,0.0,0.0,90,0.00,CLR,,0.00,0.0,WeatherDisplay:10.37,2013-03-20 12:03:00,
2013-03-20 05:08:00,52.2,49.4,30.05,SE,130,0.0,0.0,90,0.00,CLR,,0.00,0.0,WeatherDisplay:10.37,2013-03-20 12:08:00,
2013-03-20 05:13:00,52.1,49.3,30.04,SE,130,2.3,2.3,90,0.00,CLR,,0.00,0.0,WeatherDisplay:10.37,2013-03-20 12:13:00,
2013-03-20 05:18:00,52.0,49.5,30.04,SE,130,1.1,0.0,91,0.00,CLR,,0.00,0.0,WeatherDisplay:10.37,2013-03-20 12:18:00,
2013-03-20 05:23:00,52.0,49.5,30.05,SE,130,0.0,0.0,91,0.00,CLR,,0.00,0.0,WeatherDisplay:10.37,2013-03-20 12:23:00,
2013-03-20 05:28:00,52.0,49.5,30.05,SE,129,2.3,2.3,91,0.00,CLR,,0.00,0.0,WeatherDisplay:10.37,2013-03-20 12:28:00,
2013-03-20 05:33:00,52.3,50.0,30.05,NNW,343,3.5,3.5,92,0.00,CLR,,0.00,0.0,WeatherDisplay:10.37,2013-03-20 12:33:00,
2013-03-20 05:38:00,52.6,50.0,30.05,NNW,342,1.1,0.0,91,0.00,CLR,,0.00,0.0,WeatherDisplay:10.37,2013-03-20 12:38:00,
2013-03-20 05:43:00,52.7,50.1,30.05,NNW,342,0.0,0.0,91,0.00,CLR,,0.00,0.0,WeatherDisplay:10.37,2013-03-20 12:43:00,
2013-03-20 05:48:00,52.7,50.1,30.04,NNW,342,1.1,1.1,91,0.00,CLR,,0.00,0.0,WeatherDisplay:10.37,2013-03-20 12:48:00,
2013-03-20 05:53:00,52.7,50.1,30.04,NNW,342,0.0,0.0,91,0.00,CLR,,0.00,0.0,WeatherDisplay:10.37,2013-03-20 12:53:00,
2013-03-20 05:59:00,52.6,50.0,30.03,NNW,342,0.0,0.0,91,0.00,CLR,,0.00,0.0,WeatherDisplay:10.37,2013-03-20 12:59:00,
2013-03-20 06:04:00,52.5,49.9,30.03,NNW,342,1.1,1.1,91,0.00,CLR,,0.00,0.0,WeatherDisplay:10.37,2013-03-20 13:04:00,
2013-03-20 06:09:00,52.5,49.9,30.04,NNW,342,0.0,0.0,91,0.00,CLR,,0.00,0.0,WeatherDisplay:10.37,2013-03-20 13:09:00,
2013-03-20 06:14:00,52.4,49.8,30.05,NNW,342,0.0,0.0,91,0.00,CLR,,0.00,0.0,WeatherDisplay:10.37,2013-03-20 13:14:00,
2013-03-20 06:19:00,52.3,49.5,30.05,NNW,342,0.0,0.0,90,0.00,CLR,,0.00,0.0,WeatherDisplay:10.37,2013-03-20 13:19:00,
2013-03-20 06:24:00,52.4,49.8,30.04,NNW,342,0.0,0.0,91,0.00,CLR,,0.00,0.0,WeatherDisplay:10.37,2013-03-20 13:24:00,
2013-03-20 06:29:00,52.3,49.8,30.04,NNW,342,0.0,0.0,91,0.00,CLR,,0.00,0.0,WeatherDisplay:10.37,2013-03-20 13:29:00,
2013-03-20 06:34:00,52.2,49.4,30.05,NNW,342,0.0,0.0,90,0.00,CLR,,0.00,0.0,WeatherDisplay:10.37,2013-03-20 13:34:00,
2013-03-20 06:39:00,52.3,49.8,30.05,NNW,342,1.1,0.0,91,0.00,CLR,,0.00,0.0,WeatherDisplay:10.37,2013-03-20 13:39:00,
2013-03-20 06:44:00,52.5,49.9,30.05,NNW,342,1.0,1.0,91,0.00,CLR,,0.00,0.0,WeatherDisplay:10.37,2013-03-20 13:44:00,
2013-03-20 06:49:00,52.6,50.0,30.06,NNW,342,1.1,1.1,91,0.00,CLR,,0.00,0.0,WeatherDisplay:10.37,2013-03-20 13:49:00,
2013-03-20 06:54:00,52.9,50.3,30.06,NNW,342,1.1,1.1,91,0.00,CLR,,0.00,0.0,WeatherDisplay:10.37,2013-03-20 13:54:00,
2013-03-20 06:59:00,53.3,50.7,30.07,NNW,342,2.3,2.3,91,0.00,CLR,,0.00,0.0,WeatherDisplay:10.37,2013-03-20 13:59:00,
2013-03-20 07:04:00,53.6,50.7,30.06,NNW,342,1.1,1.1,90,0.00,SCT,,0.00,9.0,WeatherDisplay:10.37,2013-03-20 14:04:00,
2013-03-20 07:09:00,53.7,50.8,30.06,NNW,342,0.0,0.0,90,0.00,FEW,,0.00,19.0,WeatherDisplay:10.37,2013-03-20 14:09:00,
2013-03-20 07:14:00,53.7,50.5,30.06,NNW,342,1.1,0.0,89,0.00,FEW,,0.00,28.0,WeatherDisplay:10.37,2013-03-20 14:14:00,
2013-03-20 07:19:00,53.7,50.5,30.06,NNW,342,0.0,0.0,89,0.00,CLR,,0.00,42.0,WeatherDisplay:10.37,2013-03-20 14:19:00,
2013-03-20 07:24:00,53.7,50.5,30.06,NNW,342,0.0,0.0,89,0.00,FEW,,0.00,51.0,WeatherDisplay:10.37,2013-03-20 14:24:00,
2013-03-20 07:29:00,53.9,51.0,30.07,NNW,342,2.3,2.3,90,0.00,CLR,,0.00,65.0,WeatherDisplay:10.37,2013-03-20 14:29:00,
2013-03-20 07:34:00,54.1,51.2,30.07,NNW,342,0.0,0.0,90,0.00,CLR,,0.00,84.0,WeatherDisplay:10.37,2013-03-20 14:34:00,
2013-03-20 07:39:00,54.3,51.1,30.05,NNW,342,2.3,2.3,89,0.00,FEW,,0.00,76.0,WeatherDisplay:10.37,2013-03-20 14:39:00,
2013-03-20 07:44:00,54.4,51.2,30.06,North,355,1.1,1.1,89,0.00,SCT,,0.00,72.0,WeatherDisplay:10.37,2013-03-20 14:44:00,
2013-03-20 07:49:00,54.6,51.4,30.05,North,355,1.1,1.1,89,0.00,SCT,,0.00,72.0,WeatherDisplay:10.37,2013-03-20 14:49:00,
2013-03-20 07:54:00,54.8,51.6,30.06,NNE,32,1.1,1.1,89,0.00,SCT,,0.00,76.0,WeatherDisplay:10.37,2013-03-20 14:54:00,
2013-03-20 07:59:00,54.8,51.3,30.06,NNE,32,2.3,2.3,88,0.00,SCT,,0.00,91.0,WeatherDisplay:10.37,2013-03-20 14:59:00,
2013-03-20 08:04:00,54.8,51.3,30.06,NNE,32,0.0,0.0,88,0.00,SCT,,0.00,107.0,WeatherDisplay:10.37,2013-03-20 15:04:00,
2013-03-20 08:09:00,54.9,51.4,30.07,NNE,32,0.0,0.0,88,0.00,SCT,,0.00,127.0,WeatherDisplay:10.37,2013-03-20 15:09:00,
2013-03-20 08:14:00,55.1,51.6,30.07,NNE,32,0.0,0.0,88,0.00,FEW,,0.00,165.0,WeatherDisplay:10.37,2013-03-20 15:14:00,
2013-03-20 08:19:00,55.5,52.0,30.07,NNE,32,0.0,0.0,88,0.00,CLR,,0.00,158.0,WeatherDisplay:10.37,2013-03-20 15:19:00,
2013-03-20 08:24:00,55.9,52.1,30.07,NNE,32,2.3,2.3,87,0.00,SCT,,0.00,165.0,WeatherDisplay:10.37,2013-03-20 15:24:00,
2013-03-20 08:29:00,56.3,52.2,30.07,NNE,32,2.3,2.3,86,0.00,SCT,,0.00,183.0,WeatherDisplay:10.37,2013-03-20 15:29:00,
2013-03-20 08:34:00,56.6,52.5,30.08,NNE,31,1.1,0.0,86,0.00,SCT,,0.00,141.0,WeatherDisplay:10.37,2013-03-20 15:34:00,
2013-03-20 08:39:00,56.8,52.3,30.08,NNE,31,0.0,0.0,85,0.00,SCT,,0.00,160.0,WeatherDisplay:10.37,2013-03-20 15:39:00,
2013-03-20 08:44:00,57.1,52.6,30.08,NNE,31,0.0,0.0,85,0.00,SCT,,0.00,167.0,WeatherDisplay:10.37,2013-03-20 15:44:00,
2013-03-20 08:49:00,57.3,52.8,30.08,NNE,31,0.0,0.0,85,0.00,BKN,,0.00,151.0,WeatherDisplay:10.37,2013-03-20 15:49:00,
2013-03-20 08:54:00,57.6,52.8,30.08,NNE,31,1.1,0.0,84,0.00,BKN,,0.00,165.0,WeatherDisplay:10.37,2013-03-20 15:54:00,
2013-03-20 08:59:00,57.9,52.8,30.08,NNE,32,1.1,1.1,83,0.00,BKN,,0.00,174.0,WeatherDisplay:10.37,2013-03-20 15:59:00,
2013-03-20 09:04:00,58.1,52.6,30.08,NE,36,2.3,2.3,82,0.00,BKN,,0.00,183.0,WeatherDisplay:10.37,2013-03-20 16:04:00,
2013-03-20 09:09:00,58.4,52.9,30.08,South,183,3.5,3.5,82,0.00,BKN,,0.00,179.0,WeatherDisplay:10.37,2013-03-20 16:09:00,
2013-03-20 09:14:00,58.5,53.0,30.08,South,171,2.3,2.3,82,0.00,BKN,,0.00,165.0,WeatherDisplay:10.37,2013-03-20 16:14:00,
2013-03-20 09:19:00,58.6,52.8,30.08,South,172,3.5,3.5,81,0.00,BKN,,0.00,158.0,WeatherDisplay:10.37,2013-03-20 16:19:00,
2013-03-20 09:24:00,58.7,52.9,30.08,South,172,3.5,3.5,81,0.00,BKN,,0.00,171.0,WeatherDisplay:10.37,2013-03-20 16:24:00,
2013-03-20 09:29:00,58.7,52.9,30.08,South,172,2.3,2.3,81,0.00,BKN,,0.00,213.0,WeatherDisplay:10.37,2013-03-20 16:29:00,
2013-03-20 09:34:00,59.0,53.2,30.08,South,172,3.0,3.0,81,0.00,SCT,,0.00,246.0,WeatherDisplay:10.37,2013-03-20 16:34:00,
2013-03-20 09:39:00,59.1,52.9,30.08,South,172,2.3,2.3,80,0.00,BKN,,0.00,227.0,WeatherDisplay:10.37,2013-03-20 16:39:00,
2013-03-20 09:44:00,59.3,53.1,30.08,South,172,3.5,3.5,80,0.00,BKN,,0.00,223.0,WeatherDisplay:10.37,2013-03-20 16:44:00,
2013-03-20 09:49:00,59.4,52.9,30.08,SSE,165,3.5,3.5,79,0.00,BKN,,0.00,229.0,WeatherDisplay:10.37,2013-03-20 16:49:00,
2013-03-20 09:54:00,59.5,53.3,30.08,SSE,163,3.5,3.5,80,0.00,BKN,,0.00,274.0,WeatherDisplay:10.37,2013-03-20 16:54:00,
2013-03-20 09:59:00,59.7,53.2,30.08,SSE,163,2.3,2.3,79,0.00,SCT,,0.00,330.0,WeatherDisplay:10.37,2013-03-20 16:59:00,
2013-03-20 10:04:00,60.0,53.5,30.07,SSE,163,3.0,3.0,79,0.00,SCT,,0.00,294.0,WeatherDisplay:10.37,2013-03-20 17:04:00,
2013-03-20 10:09:00,60.2,53.3,30.08,SSE,160,3.5,3.5,78,0.00,SCT,,0.00,304.0,WeatherDisplay:10.37,2013-03-20 17:09:00,
2013-03-20 10:14:00,60.4,53.5,30.08,SSE,161,3.5,3.5,78,0.00,SCT,,0.00,325.0,WeatherDisplay:10.37,2013-03-20 17:14:00,
2013-03-20 10:19:00,60.5,53.3,30.08,SSE,161,2.3,2.3,77,0.00,SCT,,0.00,323.0,WeatherDisplay:10.37,2013-03-20 17:19:00,
2013-03-20 10:24:00,60.8,53.5,30.08,SSE,161,3.0,3.0,77,0.00,BKN,,0.00,323.0,WeatherDisplay:10.37,2013-03-20 17:24:00,
2013-03-20 10:29:00,61.1,53.5,30.08,SSE,161,3.5,3.5,76,0.00,SCT,,0.00,376.0,WeatherDisplay:10.37,2013-03-20 17:29:00,
2013-03-20 10:34:00,61.4,54.1,30.08,SSE,162,1.1,0.0,77,0.00,SCT,,0.00,397.0,WeatherDisplay:10.37,2013-03-20 17:34:00,
2013-03-20 10:39:00,61.8,53.8,30.09,WSW,250,3.0,3.0,75,0.00,SCT,,0.00,415.0,WeatherDisplay:10.37,2013-03-20 17:39:00,
2013-03-20 10:44:00,62.0,54.0,30.09,SW,216,3.5,3.5,75,0.00,SCT,,0.00,403.0,WeatherDisplay:10.37,2013-03-20 17:44:00,
2013-03-20 10:49:00,61.9,53.9,30.09,SSW,213,2.3,2.3,75,0.00,SCT,,0.00,512.0,WeatherDisplay:10.37,2013-03-20 17:49:00,
2013-03-20 10:54:00,62.2,53.8,30.08,West,261,5.0,5.0,74,0.00,FEW,,0.00,563.0,WeatherDisplay:10.37,2013-03-20 17:54:00,
2013-03-20 10:59:00,62.4,54.0,30.08,WSW,252,4.0,4.0,74,0.00,SCT,,0.00,413.0,WeatherDisplay:10.37,2013-03-20 17:59:00,
2013-03-20 11:04:00,62.6,54.2,30.08,WSW,237,2.3,2.3,74,0.00,SCT,,0.00,503.0,WeatherDisplay:10.37,2013-03-20 18:04:00,
2013-03-20 11:09:00,63.1,53.9,30.08,SSW,195,3.5,3.5,72,0.00,SCT,,0.00,429.0,WeatherDisplay:10.37,2013-03-20 18:09:00,
2013-03-20 11:14:00,63.1,53.9,30.08,SSE,164,3.5,3.5,72,0.00,SCT,,0.00,563.0,WeatherDisplay:10.37,2013-03-20 18:14:00,
2013-03-20 11:19:00,63.5,54.3,30.09,SSE,165,1.1,1.1,72,0.00,FEW,,0.00,638.0,WeatherDisplay:10.37,2013-03-20 18:19:00,
2013-03-20 11:24:00,63.9,54.3,30.08,WSW,248,4.6,4.6,71,0.00,BKN,,0.00,334.0,WeatherDisplay:10.37,2013-03-20 18:24:00,
2013-03-20 11:29:00,64.1,54.5,30.08,WSW,246,2.0,2.0,71,0.00,BKN,,0.00,401.0,WeatherDisplay:10.37,2013-03-20 18:29:00,
2013-03-20 11:34:00,64.6,54.2,30.08,SW,236,3.5,3.5,69,0.00,SCT,,0.00,679.0,WeatherDisplay:10.37,2013-03-20 18:34:00,
2013-03-20 11:39:00,65.0,54.6,30.08,WSW,240,3.5,3.5,69,0.00,SCT,,0.00,466.0,WeatherDisplay:10.37,2013-03-20 18:39:00,
2013-03-20 11:44:00,65.3,54.5,30.09,SW,218,6.0,6.0,68,0.00,SCT,,0.00,504.0,WeatherDisplay:10.37,2013-03-20 18:44:00,
2013-03-20 11:49:00,65.2,54.4,30.09,SSW,198,3.5,3.5,68,0.00,SCT,,0.00,478.0,WeatherDisplay:10.37,2013-03-20 18:49:00,
2013-03-20 11:54:00,65.4,54.2,30.09,WNW,283,7.0,7.0,67,0.00,SCT,,0.00,429.0,WeatherDisplay:10.37,2013-03-20 18:54:00,
2013-03-20 11:59:00,65.5,54.2,30.08,SSW,198,3.5,3.5,67,0.00,SCT,,0.00,606.0,WeatherDisplay:10.37,2013-03-20 18:59:00,
2013-03-20 12:04:00,65.6,53.9,30.08,West,276,5.8,5.8,66,0.00,FEW,,0.00,585.0,WeatherDisplay:10.37,2013-03-20 19:04:00,
2013-03-20 12:09:00,65.8,54.1,30.08,SSW,202,5.0,5.0,66,0.00,FEW,,0.00,626.0,WeatherDisplay:10.37,2013-03-20 19:09:00,
2013-03-20 12:14:00,66.0,54.3,30.08,SSW,212,4.0,4.0,66,0.00,SCT,,0.00,540.0,WeatherDisplay:10.37,2013-03-20 19:14:00,
2013-03-20 12:19:00,66.3,54.2,30.08,SSW,212,4.0,4.0,65,0.00,SCT,,0.00,432.0,WeatherDisplay:10.37,2013-03-20 19:19:00,
2013-03-20 12:24:00,66.6,54.5,30.07,West,266,4.0,4.0,65,0.00,SCT,,0.00,561.0,WeatherDisplay:10.37,2013-03-20 19:24:00,
2013-03-20 12:29:00,66.7,54.1,30.07,NW,309,2.3,2.3,64,0.00,SCT,,0.00,519.0,WeatherDisplay:10.37,2013-03-20 19:29:00,
2013-03-20 12:34:00,67.0,54.0,30.07,SSW,203,3.5,3.5,63,0.00,BKN,,0.00,466.0,WeatherDisplay:10.37,2013-03-20 19:34:00,
2013-03-20 12:39:00,67.4,54.4,30.07,West,275,4.6,4.6,63,0.00,FEW,,0.00,668.0,WeatherDisplay:10.37,2013-03-20 19:39:00,
2013-03-20 12:44:00,67.7,53.8,30.07,WSW,257,4.0,4.0,61,0.00,FEW,,0.00,705.0,WeatherDisplay:10.37,2013-03-20 19:44:00,
2013-03-20 12:49:00,67.7,53.8,30.06,SSW,207,4.0,4.0,61,0.00,FEW,,0.00,635.0,WeatherDisplay:10.37,2013-03-20 19:49:00,
2013-03-20 12:54:00,67.9,54.0,30.06,NW,310,5.0,5.0,61,0.00,SCT,,0.00,504.0,WeatherDisplay:10.37,2013-03-20 19:54:00,
2013-03-20 12:59:00,68.4,54.0,30.06,WSW,249,6.9,6.9,60,0.00,SCT,,0.00,599.0,WeatherDisplay:10.37,2013-03-20 19:59:00,
2013-03-20 13:04:00,68.7,53.8,30.06,SSW,207,4.0,4.0,59,0.00,SCT,,0.00,461.0,WeatherDisplay:10.37,2013-03-20 20:04:00,
2013-03-20 13:09:00,68.7,53.8,30.06,SSW,195,4.6,4.6,59,0.00,SCT,,0.00,555.0,WeatherDisplay:10.37,2013-03-20 20:09:00,
2013-03-20 13:14:00,69.0,54.1,30.06,WSW,257,5.8,5.8,59,0.00,SCT,,0.00,638.0,WeatherDisplay:10.37,2013-03-20 20:14:00,
2013-03-20 13:19:00,69.0,54.5,30.05,South,182,5.8,5.8,60,0.00,FEW,,0.00,735.0,WeatherDisplay:10.37,2013-03-20 20:19:00,
2013-03-20 13:24:00,69.5,54.1,30.05,South,178,4.6,4.6,58,0.00,CLR,,0.00,838.0,WeatherDisplay:10.37,2013-03-20 20:24:00,
2013-03-20 13:29:00,70.1,54.6,30.05,SW,227,7.0,7.0,58,0.00,CLR,,0.00,879.0,WeatherDisplay:10.37,2013-03-20 20:29:00,
2013-03-20 13:34:00,70.2,54.2,30.05,SW,234,5.8,5.8,57,0.00,SCT,,0.00,545.0,WeatherDisplay:10.37,2013-03-20 20:34:00,
2013-03-20 13:39:00,70.4,54.0,30.04,SSE,159,4.6,4.6,56,0.00,CLR,,0.00,858.0,WeatherDisplay:10.37,2013-03-20 20:39:00,
2013-03-20 13:44:00,71.2,54.7,30.04,SSW,202,7.0,7.0,56,0.00,CLR,,0.00,888.0,WeatherDisplay:10.37,2013-03-20 20:44:00,
2013-03-20 13:49:00,71.1,54.6,30.03,NW,310,5.0,5.0,56,0.00,CLR,,0.00,715.0,WeatherDisplay:10.37,2013-03-20 20:49:00,
2013-03-20 13:54:00,71.2,54.2,30.03,SSW,196,4.0,4.0,55,0.00,SCT,,0.00,503.0,WeatherDisplay:10.37,2013-03-20 20:54:00,
2013-03-20 13:59:00,71.2,54.2,30.03,WSW,250,5.0,5.0,55,0.00,BKN,,0.00,489.0,WeatherDisplay:10.37,2013-03-20 20:59:00,
2013-03-20 14:04:00,71.4,53.9,30.02,SSW,198,3.5,3.5,54,0.00,SCT,,0.00,592.0,WeatherDisplay:10.37,2013-03-20 21:04:00,
2013-03-20 14:09:00,72.0,54.4,30.02,South,175,4.0,4.0,54,0.00,SCT,,0.00,487.0,WeatherDisplay:10.37,2013-03-20 21:09:00,
2013-03-20 14:14:00,72.2,54.1,30.02,SW,216,6.9,6.9,53,0.00,FEW,,0.00,482.0,WeatherDisplay:10.37,2013-03-20 21:14:00,
2013-03-20 14:19:00,72.1,54.0,30.02,SSE,163,5.0,5.0,53,0.00,SCT,,0.00,582.0,WeatherDisplay:10.37,2013-03-20 21:19:00,
2013-03-20 14:24:00,71.8,53.2,30.02,SSW,212,5.0,5.0,52,0.00,SCT,,0.00,610.0,WeatherDisplay:10.37,2013-03-20 21:24:00,
2013-03-20 14:29:00,72.1,53.5,30.02,NW,305,9.2,9.2,52,0.00,SCT,,0.00,520.0,WeatherDisplay:10.37,2013-03-20 21:29:00,
2013-03-20 14:34:00,71.8,53.2,30.01,WNW,303,9.0,9.0,52,0.00,SCT,,0.00,429.0,WeatherDisplay:10.37,2013-03-20 21:34:00,
2013-03-20 14:39:00,71.8,53.7,30.02,WSW,254,12.0,12.0,53,0.00,SCT,,0.00,621.0,WeatherDisplay:10.37,2013-03-20 21:39:00,
2013-03-20 14:44:00,71.3,53.3,30.01,WSW,245,6.9,6.9,53,0.00,SCT,,0.00,355.0,WeatherDisplay:10.37,2013-03-20 21:44:00,
2013-03-20 14:50:00,71.2,53.7,30.01,West,264,5.0,5.0,54,0.00,SCT,,0.00,399.0,WeatherDisplay:10.37,2013-03-20 21:50:00,
2013-03-20 14:55:00,71.3,53.8,30.01,WSW,255,7.0,7.0,54,0.00,SCT,,0.00,371.0,WeatherDisplay:10.37,2013-03-20 21:55:00,
2013-03-20 15:00:00,71.0,53.5,30.01,WSW,245,10.4,10.4,54,0.00,SCT,,0.00,385.0,WeatherDisplay:10.37,2013-03-20 22:00:00,
2013-03-20 15:05:00,70.7,54.2,30.01,West,280,10.4,10.4,56,0.00,SCT,,0.00,504.0,WeatherDisplay:10.37,2013-03-20 22:05:00,
2013-03-20 15:10:00,70.3,53.9,30.01,West,259,8.0,8.0,56,0.00,SCT,,0.00,454.0,WeatherDisplay:10.37,2013-03-20 22:10:00,
2013-03-20 15:15:00,70.0,54.1,30.01,SW,227,9.2,9.2,57,0.00,SCT,,0.00,422.0,WeatherDisplay:10.37,2013-03-20 22:15:00,
2013-03-20 15:20:00,70.1,54.2,30.00,SW,215,8.1,8.1,57,0.00,SCT,,0.00,411.0,WeatherDisplay:10.37,2013-03-20 22:20:00,
2013-03-20 15:25:00,69.9,54.0,30.00,WSW,254,11.5,11.5,57,0.00,SCT,,0.00,345.0,WeatherDisplay:10.37,2013-03-20 22:25:00,
2013-03-20 15:30:00,69.7,53.8,30.00,West,261,11.0,11.0,57,0.00,SCT,,0.00,512.0,WeatherDisplay:10.37,2013-03-20 22:30:00,
2013-03-20 15:35:00,69.6,53.7,30.01,SW,219,8.1,8.1,57,0.00,SCT,,0.00,403.0,WeatherDisplay:10.37,2013-03-20 22:35:00,
2013-03-20 15:40:00,69.7,53.3,30.01,SSW,207,11.5,11.5,56,0.00,FEW,,0.00,462.0,WeatherDisplay:10.37,2013-03-20 22:40:00,
2013-03-20 15:45:00,69.6,52.2,30.01,WSW,251,11.5,11.5,54,0.00,CLR,,0.00,543.0,WeatherDisplay:10.37,2013-03-20 22:45:00,
2013-03-20 15:50:00,69.2,51.3,30.01,West,261,8.0,8.0,53,0.00,FEW,,0.00,508.0,WeatherDisplay:10.37,2013-03-20 22:50:00,
2013-03-20 15:55:00,69.2,51.3,30.01,SW,227,9.2,9.2,53,0.00,CLR,,0.00,619.0,WeatherDisplay:10.37,2013-03-20 22:55:00,
2013-03-20 16:00:00,69.4,51.5,30.01,West,267,9.2,9.2,53,0.00,CLR,,0.00,584.0,WeatherDisplay:10.37,2013-03-20 23:00:00,
2013-03-20 16:05:00,69.3,51.9,30.00,West,266,9.2,9.2,54,0.00,CLR,,0.00,512.0,WeatherDisplay:10.37,2013-03-20 23:05:00,
2013-03-20 16:10:00,69.0,51.7,30.00,West,275,9.2,9.2,54,0.00,SCT,,0.00,308.0,WeatherDisplay:10.37,2013-03-20 23:10:00,
2013-03-20 16:15:00,69.3,52.4,30.00,WNW,294,6.9,6.9,55,0.00,CLR,,0.00,512.0,WeatherDisplay:10.37,2013-03-20 23:15:00,
2013-03-20 16:20:00,68.9,51.6,30.00,West,278,8.1,8.1,54,0.00,SCT,,0.00,260.0,WeatherDisplay:10.37,2013-03-20 23:20:00,
2013-03-20 16:25:00,68.5,52.2,30.00,West,264,5.8,5.8,56,0.00,SCT,,0.00,410.0,WeatherDisplay:10.37,2013-03-20 23:25:00,
2013-03-20 16:30:00,68.5,52.2,30.00,SW,220,5.8,5.8,56,0.00,BKN,,0.00,211.0,WeatherDisplay:10.37,2013-03-20 23:30:00,
2013-03-20 16:35:00,68.7,51.9,30.00,WSW,258,8.1,8.1,55,0.00,SCT,,0.00,260.0,WeatherDisplay:10.37,2013-03-20 23:35:00,
2013-03-20 16:40:00,68.6,51.8,29.99,WNW,297,7.0,7.0,55,0.00,SCT,,0.00,244.0,WeatherDisplay:10.37,2013-03-20 23:40:00,
2013-03-20 16:45:00,68.8,52.0,29.99,SW,231,4.6,4.6,55,0.00,SCT,,0.00,241.0,WeatherDisplay:10.37,2013-03-20 23:45:00,
2013-03-20 16:50:00,68.8,52.0,29.99,West,260,4.6,4.6,55,0.00,SCT,,0.00,214.0,WeatherDisplay:10.37,2013-03-20 23:50:00,
2013-03-20 16:55:00,68.8,51.5,29.99,SW,219,6.9,6.9,54,0.00,SCT,,0.00,246.0,WeatherDisplay:10.37,2013-03-20 23:55:00,
2013-03-20 17:00:00,68.8,51.5,29.99,West,268,9.0,9.0,54,0.00,SCT,,0.00,269.0,WeatherDisplay:10.37,2013-03-21 00:00:00,
2013-03-20 17:05:00,68.8,51.0,29.99,WSW,244,6.9,6.9,53,0.00,SCT,,0.00,262.0,WeatherDisplay:10.37,2013-03-21 00:05:00,
2013-03-20 17:10:00,68.7,50.4,29.99,West,263,9.2,9.2,52,0.00,BKN,,0.00,148.0,WeatherDisplay:10.37,2013-03-21 00:10:00,
2013-03-20 17:15:00,68.5,50.7,29.99,WSW,246,5.8,5.8,53,0.00,BKN,,0.00,128.0,WeatherDisplay:10.37,2013-03-21 00:15:00,
2013-03-20 17:20:00,68.4,50.6,29.99,SSW,211,7.0,7.0,53,0.00,BKN,,0.00,134.0,WeatherDisplay:10.37,2013-03-21 00:20:00,
2013-03-20 17:25:00,68.1,50.3,29.98,SSW,213,8.0,8.0,53,0.00,BKN,,0.00,134.0,WeatherDisplay:10.37,2013-03-21 00:25:00,
2013-03-20 17:30:00,67.6,50.4,29.98,SSW,197,8.1,8.1,54,0.00,SCT,,0.00,165.0,WeatherDisplay:10.37,2013-03-21 00:30:00,
2013-03-20 17:35:00,67.4,50.7,29.99,SW,223,9.2,9.2,55,0.00,SCT,,0.00,167.0,WeatherDisplay:10.37,2013-03-21 00:35:00,
2013-03-20 17:40:00,67.4,50.7,29.99,West,270,9.0,9.0,55,0.00,BKN,,0.00,104.0,WeatherDisplay:10.37,2013-03-21 00:40:00,
2013-03-20 17:45:00,67.2,51.0,29.99,West,261,3.5,3.5,56,0.00,BKN,,0.00,88.0,WeatherDisplay:10.37,2013-03-21 00:45:00,
2013-03-20 17:50:00,67.3,51.1,29.99,West,260,7.0,7.0,56,0.00,BKN,,0.00,74.0,WeatherDisplay:10.37,2013-03-21 00:50:00,
2013-03-20 17:55:00,66.8,51.1,29.99,SSW,212,10.4,10.4,57,0.00,BKN,,0.00,69.0,WeatherDisplay:10.37,2013-03-21 00:55:00,
2013-03-20 18:00:00,66.5,51.3,29.99,SSW,207,8.1,8.1,58,0.00,BKN,,0.00,62.0,WeatherDisplay:10.37,2013-03-21 01:00:00,
2013-03-20 18:05:00,66.3,51.1,29.99,SW,218,6.9,6.9,58,0.00,BKN,,0.00,62.0,WeatherDisplay:10.37,2013-03-21 01:05:00,
2013-03-20 18:10:00,66.0,51.3,29.98,SSW,209,6.9,6.9,59,0.00,BKN,,0.00,58.0,WeatherDisplay:10.37,2013-03-21 01:10:00,
2013-03-20 18:15:00,65.9,51.2,29.98,SW,220,6.9,6.9,59,0.00,BKN,,0.00,47.0,WeatherDisplay:10.37,2013-03-21 01:15:00,
2013-03-20 18:20:00,65.9,51.2,29.98,West,259,6.0,6.0,59,0.00,BKN,,0.00,44.0,WeatherDisplay:10.37,2013-03-21 01:20:00,
2013-03-20 18:25:00,65.6,50.9,29.98,WSW,253,8.1,8.1,59,0.00,BKN,,0.00,46.0,WeatherDisplay:10.37,2013-03-21 01:25:00,
2013-03-20 18:30:00,65.4,51.1,29.98,WNW,283,5.8,5.8,60,0.00,SCT,,0.00,49.0,WeatherDisplay:10.37,2013-03-21 01:30:00,
2013-03-20 18:35:00,65.2,51.0,29.98,West,278,6.0,6.0,60,0.00,SCT,,0.00,33.0,WeatherDisplay:10.37,2013-03-21 01:35:00,
2013-03-20 18:40:00,65.1,51.3,29.98,WNW,292,5.8,5.8,61,0.00,BKN,,0.00,21.0,WeatherDisplay:10.37,2013-03-21 01:40:00,
2013-03-20 18:45:00,65.0,51.2,29.98,West,270,3.5,3.5,61,0.00,BKN,,0.00,14.0,WeatherDisplay:10.37,2013-03-21 01:45:00,
2013-03-20 18:50:00,65.0,51.2,29.98,West,270,3.5,3.5,61,0.00,BKN,,0.00,11.0,WeatherDisplay:10.37,2013-03-21 01:50:00,
2013-03-20 18:55:00,65.0,50.8,29.98,West,277,3.5,3.5,60,0.00,SCT,,0.00,11.0,WeatherDisplay:10.37,2013-03-21 01:55:00,
2013-03-20 19:00:00,64.8,50.6,29.98,WNW,300,5.0,5.0,60,0.00,CLR,,0.00,5.0,WeatherDisplay:10.37,2013-03-21 02:00:00,
2013-03-20 19:05:00,64.6,50.4,29.98,WNW,286,5.0,5.0,60,0.00,CLR,,0.00,0.0,WeatherDisplay:10.37,2013-03-21 02:05:00,
2013-03-20 19:10:00,64.3,50.1,29.98,West,271,4.6,4.6,60,0.00,CLR,,0.00,0.0,WeatherDisplay:10.37,2013-03-21 02:10:00,
2013-03-20 19:15:00,64.2,50.5,29.98,West,269,3.5,3.5,61,0.00,CLR,,0.00,0.0,WeatherDisplay:10.37,2013-03-21 02:15:00,
2013-03-20 19:20:00,64.0,51.1,29.98,WSW,252,3.5,3.5,63,0.00,CLR,,0.00,0.0,WeatherDisplay:10.37,2013-03-21 02:20:00,
2013-03-20 19:25:00,63.8,51.0,29.98,WSW,252,1.1,1.1,63,0.00,CLR,,0.00,0.0,WeatherDisplay:10.37,2013-03-21 02:25:00,
2013-03-20 19:30:00,63.6,51.2,29.98,WSW,251,2.3,2.3,64,0.00,CLR,,0.00,0.0,WeatherDisplay:10.37,2013-03-21 02:30:00,
2013-03-20 19:35:00,63.4,51.0,29.97,WSW,251,2.0,2.0,64,0.00,CLR,,0.00,0.0,WeatherDisplay:10.37,2013-03-21 02:35:00,
2013-03-20 19:40:00,63.2,50.8,29.97,WSW,250,2.3,2.3,64,0.00,CLR,,0.00,0.0,WeatherDisplay:10.37,2013-03-21 02:40:00,
2013-03-20 19:45:00,63.1,50.7,29.97,WSW,250,2.3,2.3,64,0.00,CLR,,0.00,0.0,WeatherDisplay:10.37,2013-03-21 02:45:00,
2013-03-20 19:50:00,63.0,50.6,29.98,WSW,250,1.1,1.1,64,0.00,CLR,,0.00,0.0,WeatherDisplay:10.37,2013-03-21 02:50:00,
2013-03-20 19:55:00,62.9,51.0,29.98,WSW,249,3.5,3.5,65,0.00,CLR,,0.00,0.0,WeatherDisplay:10.37,2013-03-21 02:55:00,
2013-03-20 20:00:00,62.8,50.9,29.98,WSW,242,3.5,3.5,65,0.00,CLR,,0.00,0.0,WeatherDisplay:10.37,2013-03-21 03:00:00,
2013-03-20 20:05:00,62.7,50.8,29.98,WSW,240,3.5,3.5,65,0.00,CLR,,0.00,0.0,WeatherDisplay:10.37,2013-03-21 03:05:00,
2013-03-20 20:11:00,62.6,50.7,29.97,WSW,240,1.1,1.1,65,0.00,CLR,,0.00,0.0,WeatherDisplay:10.37,2013-03-21 03:11:00,
2013-03-20 20:16:00,62.4,50.5,29.97,WSW,240,3.5,3.5,65,0.00,CLR,,0.00,0.0,WeatherDisplay:10.37,2013-03-21 03:16:00,
2013-03-20 20:21:00,62.4,50.5,29.97,WSW,237,3.5,3.5,65,0.00,CLR,,0.00,0.0,WeatherDisplay:10.37,2013-03-21 03:21:00,
2013-03-20 20:26:00,62.4,50.5,29.98,SW,236,4.0,4.0,65,0.00,CLR,,0.00,0.0,WeatherDisplay:10.37,2013-03-21 03:26:00,
2013-03-20 20:31:00,62.3,50.0,29.98,SSW,212,3.5,3.5,64,0.00,CLR,,0.00,0.0,WeatherDisplay:10.37,2013-03-21 03:31:00,
2013-03-20 20:36:00,62.2,49.9,29.97,SW,223,6.9,6.9,64,0.00,CLR,,0.00,0.0,WeatherDisplay:10.37,2013-03-21 03:36:00,
2013-03-20 20:41:00,62.0,50.1,29.97,SSW,205,4.6,4.6,65,0.00,CLR,,0.00,0.0,WeatherDisplay:10.37,2013-03-21 03:41:00,
2013-03-20 20:46:00,61.9,50.0,29.97,SW,228,2.3,2.3,65,0.00,CLR,,0.00,0.0,WeatherDisplay:10.37,2013-03-21 03:46:00,
2013-03-20 20:51:00,61.7,49.8,29.97,SW,225,3.5,3.5,65,0.00,CLR,,0.00,0.0,WeatherDisplay:10.37,2013-03-21 03:51:00,
2013-03-20 20:56:00,61.6,50.1,29.97,SSW,207,3.5,3.5,66,0.00,CLR,,0.00,0.0,WeatherDisplay:10.37,2013-03-21 03:56:00,
2013-03-20 21:00:00,61.6,49.7,29.97,SSW,207,7.0,7.0,65,0.00,CLR,,0.00,0.0,WeatherDisplay:10.37,2013-03-21 04:00:00,
2013-03-20 21:05:00,61.5,49.6,29.97,SW,225,5.8,5.8,65,0.00,CLR,,0.00,0.0,WeatherDisplay:10.37,2013-03-21 04:05:00,
2013-03-20 21:10:00,61.4,49.5,29.98,SW,216,6.9,6.9,65,0.00,CLR,,0.00,0.0,WeatherDisplay:10.37,2013-03-21 04:10:00,
2013-03-20 21:15:00,61.3,49.4,29.97,SSW,211,6.9,6.9,65,0.00,CLR,,0.00,0.0,WeatherDisplay:10.37,2013-03-21 04:15:00,
2013-03-20 21:20:00,61.3,49.4,29.97,South,178,4.6,4.6,65,0.00,CLR,,0.00,0.0,WeatherDisplay:10.37,2013-03-21 04:20:00,
2013-03-20 21:25:00,61.2,48.9,29.97,SSW,205,6.0,6.0,64,0.00,CLR,,0.00,0.0,WeatherDisplay:10.37,2013-03-21 04:25:00,
2013-03-20 21:30:00,61.1,48.8,29.98,SSW,203,5.8,5.8,64,0.00,CLR,,0.00,0.0,WeatherDisplay:10.37,2013-03-21 04:30:00,
2013-03-20 21:35:00,61.0,49.1,29.97,South,180,7.0,7.0,65,0.00,CLR,,0.00,0.0,WeatherDisplay:10.37,2013-03-21 04:35:00,
2013-03-20 21:40:00,61.0,49.1,29.98,SSW,208,6.0,6.0,65,0.00,CLR,,0.00,0.0,WeatherDisplay:10.37,2013-03-21 04:40:00,
2013-03-20 21:45:00,60.9,49.1,29.98,SSW,196,7.0,7.0,65,0.00,CLR,,0.00,0.0,WeatherDisplay:10.37,2013-03-21 04:45:00,
2013-03-20 21:50:00,60.8,49.0,29.98,SSW,203,5.8,5.8,65,0.00,CLR,,0.00,0.0,WeatherDisplay:10.37,2013-03-21 04:50:00,
2013-03-20 21:55:00,60.7,48.9,29.98,SSW,202,7.0,7.0,65,0.00,CLR,,0.00,0.0,WeatherDisplay:10.37,2013-03-21 04:55:00,
2013-03-20 22:00:00,60.7,48.9,29.98,SSW,211,6.9,6.9,65,0.00,CLR,,0.00,0.0,WeatherDisplay:10.37,2013-03-21 05:00:00,
2013-03-20 22:05:00,60.6,49.2,29.98,SSW,201,6.9,6.9,66,0.00,CLR,,0.00,0.0,WeatherDisplay:10.37,2013-03-21 05:05:00,
2013-03-20 22:10:00,60.6,50.4,29.98,South,183,5.0,5.0,69,0.00,CLR,,0.00,0.0,WeatherDisplay:10.37,2013-03-21 05:10:00,
2013-03-20 22:15:00,60.3,51.6,29.98,South,183,3.5,3.5,73,0.00,CLR,,0.00,0.0,WeatherDisplay:10.37,2013-03-21 05:15:00,
2013-03-20 22:20:00,59.8,52.2,29.98,South,179,3.5,3.5,76,0.00,CLR,,0.00,0.0,WeatherDisplay:10.37,2013-03-21 05:20:00,
2013-03-20 22:25:00,59.4,52.5,29.98,SSE,162,3.5,3.5,78,0.00,CLR,,0.00,0.0,WeatherDisplay:10.37,2013-03-21 05:25:00,
2013-03-20 22:30:00,59.1,52.6,29.98,SSE,152,4.0,4.0,79,0.00,CLR,,0.00,0.0,WeatherDisplay:10.37,2013-03-21 05:30:00,
2013-03-20 22:35:00,59.0,52.8,29.99,SSE,152,3.5,3.5,80,0.00,CLR,,0.00,0.0,WeatherDisplay:10.37,2013-03-21 05:35:00,
2013-03-20 22:40:00,58.9,52.7,29.98,SSE,157,4.6,4.6,80,0.00,CLR,,0.00,0.0,WeatherDisplay:10.37,2013-03-21 05:40:00,
2013-03-20 22:45:00,58.7,52.5,29.98,South,173,5.0,5.0,80,0.00,CLR,,0.00,0.0,WeatherDisplay:10.37,2013-03-21 05:45:00,
2013-03-20 22:50:00,58.6,52.8,29.98,South,171,3.5,3.5,81,0.00,CLR,,0.00,0.0,WeatherDisplay:10.37,2013-03-21 05:50:00,
2013-03-20 22:55:00,58.6,52.8,29.99,South,170,2.3,2.3,81,0.00,CLR,,0.00,0.0,WeatherDisplay:10.37,2013-03-21 05:55:00,
2013-03-20 23:00:00,58.5,52.7,29.98,SSE,152,3.5,3.5,81,0.00,CLR,,0.00,0.0,WeatherDisplay:10.37,2013-03-21 06:00:00,
2013-03-20 23:05:00,58.5,52.7,29.98,SE,145,3.5,3.5,81,0.00,CLR,,0.00,0.0,WeatherDisplay:10.37,2013-03-21 06:05:00,
2013-03-20 23:10:00,58.4,52.6,29.97,SE,141,4.0,4.0,81,0.00,CLR,,0.00,0.0,WeatherDisplay:10.37,2013-03-21 06:10:00,
2013-03-20 23:15:00,58.4,52.6,29.97,SSE,150,3.5,3.5,81,0.00,CLR,,0.00,0.0,WeatherDisplay:10.37,2013-03-21 06:15:00,
2013-03-20 23:20:00,58.4,52.6,29.96,SE,136,3.5,3.5,81,0.00,CLR,,0.00,0.0,WeatherDisplay:10.37,2013-03-21 06:20:00,
2013-03-20 23:25:00,58.4,52.6,29.96,ESE,113,3.5,3.5,81,0.00,CLR,,0.00,0.0,WeatherDisplay:10.37,2013-03-21 06:25:00,
2013-03-20 23:30:00,58.4,52.6,29.96,SE,133,3.5,3.5,81,0.00,CLR,,0.00,0.0,WeatherDisplay:10.37,2013-03-21 06:30:00,
2013-03-20 23:35:00,58.3,52.5,29.96,ESE,119,3.5,3.5,81,0.00,CLR,,0.00,0.0,WeatherDisplay:10.37,2013-03-21 06:35:00,
2013-03-20 23:40:00,58.2,52.4,29.97,ESE,119,3.5,3.5,81,0.00,CLR,,0.00,0.0,WeatherDisplay:10.37,2013-03-21 06:40:00,
2013-03-20 23:45:00,58.1,52.6,29.96,ESE,116,4.0,4.0,82,0.00,CLR,,0.00,0.0,WeatherDisplay:10.37,2013-03-21 06:45:00,
2013-03-20 23:50:00,58.1,52.6,29.96,ESE,120,2.3,2.3,82,0.00,CLR,,0.00,0.0,WeatherDisplay:10.37,2013-03-21 06:50:00,
2013-03-20 23:55:00,58.0,52.5,29.96,ESE,115,3.5,3.5,82,0.00,CLR,,0.00,0.0,WeatherDisplay:10.37,2013-03-21 06:55:00,